Time;durP1;ratioP1;P1;durP2;ratioP2;P2;SDS_P1;SDS_P2;PMS_P1;PMS_P2;Temp;Humidity;BMP_temperature;BMP_pressure;BME280_temperature;BME280_humidity;BME280_pressure;Samples;Min_cycle;Max_cycle;Signal;HPM_P1;HPM_P2
2022/12/01 00:00:19;;;;;;;;;;;;;;;;;;6273706;22;19903;-86
2022/12/01 00:02:45;;;;;;;;;;;;;;;;;;6273511;22;19910;-84
2022/12/01 00:05:11;;;;;;;;;;;;;;;;;;6273552;22;19935;-86
2022/12/01 00:07:36;;;;;;;;;;;;;;;;;;6273541;22;19964;-88
2022/12/01 00:12:47;;;;;;;;;;;;;;;;;;6273332;22;19989;-86
2022/12/01 00:15:13;;;;;;;;;;;;;;;;;;6273405;22;19903;-86
2022/12/01 00:17:42;;;;;;;;;;;;;;;;;;6273260;22;19949;-86
2022/12/01 00:20:08;;;;;;;;;;;;;;;;;;6273333;22;19914;-85
2022/12/01 00:22:34;;;;;;;;;;;;;;;;;;6273191;22;19981;-85
2022/12/01 00:25:00;;;;;;;;;;;;;;;;;;6246334;22;19907;-84
2022/12/01 00:27:26;;;;;;;;;;;;;;;;;;6274416;22;19929;-87
2022/12/01 00:29:52;;;;;;;;;;;;;;;;;;6274399;22;19989;-86
2022/12/01 00:32:18;;;;;;;;;;;;;;;;;;6273356;22;19911;-88
2022/12/01 00:34:44;;;;;;;;;;;;;;;;;;6273170;22;20272;-85
2022/12/01 00:37:10;;;;;;;;;;;;;;;;;;6273024;22;20331;-85
2022/12/01 00:39:36;;;;;;;;;;;;;;;;;;6246214;22;19926;-84
2022/12/01 00:42:02;;;;;;;;;;;;;;;;;;6273393;22;20269;-87
2022/12/01 00:44:27;;;;;;;;;;;;;;;;;;6274051;22;19903;-80
2022/12/01 00:46:53;;;;;;;;;;;;;;;;;;6274204;22;19949;-88
2022/12/01 00:49:19;;;;;;;;;;;;;;;;;;6272908;22;19942;-88
2022/12/01 00:51:45;;;;;;;;;;;;;;;;;;6272515;22;20391;-87
2022/12/01 00:54:11;;;;;;;;;;;;;;;;;;6273283;22;19903;-88
2022/12/01 00:56:37;;;;;;;;;;;;;;;;;;6273176;22;19910;-89
2022/12/01 00:59:03;;;;;;;;;;;;;;;;;;6272983;22;19910;-88
2022/12/01 01:01:29;;;;;;;;;;;;;;;;;;6273308;22;19910;-80
2022/12/01 01:03:55;;;;;;;;;;;;;;;;;;6273971;22;19903;-87
2022/12/01 01:06:20;;;;;;;;;;;;;;;;;;6272786;22;19911;-87
2022/12/01 01:08:46;;;;;;;;;;;;;;;;;;6246007;22;20346;-87
2022/12/01 01:11:12;;;;;;;;;;;;;;;;;;6272887;22;19995;-88
2022/12/01 01:13:38;;;;;;;;;;;;;;;;;;6272897;22;20393;-87
2022/12/01 01:16:04;;;;;;;;;;;;;;;;;;6272796;22;19903;-87
2022/12/01 01:18:30;;;;;;;;;;;;;;;;;;6272675;22;19914;-86
2022/12/01 01:20:56;;;;;;;;;;;;;;;;;;6273698;22;19903;-87
2022/12/01 01:23:22;;;;;;;;;;;;;;;;;;6273007;22;19910;-87
2022/12/01 01:25:48;;;;;;;;;;;;;;;;;;6272810;22;19903;-87
2022/12/01 01:28:14;;;;;;;;;;;;;;;;;;6272803;22;19910;-87
2022/12/01 01:30:40;;;;;;;;;;;;;;;;;;6245521;22;19951;-86
2022/12/01 01:33:05;;;;;;;;;;;;;;;;;;6272688;22;19906;-89
2022/12/01 01:35:31;;;;;;;;;;;;;;;;;;6272559;22;19909;-88
2022/12/01 01:37:57;;;;;;;;;;;;;;;;;;6273792;22;19903;-87
2022/12/01 01:40:23;;;;;;;;;;;;;;;;;;6272639;22;19957;-82
2022/12/01 01:42:49;;;;;;;;;;;;;;;;;;6272514;22;20333;-83
2022/12/01 01:45:16;;;;;;;;;;;;;;;;;;6272571;22;19927;-88
2022/12/01 01:47:41;;;;;;;;;;;;;;;;;;6272396;22;19903;-84
2022/12/01 01:50:08;;;;;;;;;;;;;;;;;;6272205;22;19911;-87
2022/12/01 01:52:33;;;;;;;;;;;;;;;;;;6272584;22;20251;-85
2022/12/01 01:54:59;;;;;;;;;;;;;;;;;;6246461;22;19935;-85
2022/12/01 01:57:25;;;;;;;;;;;;;;;;;;6245188;22;19903;-86
2022/12/01 01:59:51;;;;;;;;;;;;;;;;;;6245198;22;20115;-83
2022/12/01 02:02:17;;;;;;;;;;;;;;;;;;6272436;22;19930;-89
2022/12/01 02:04:43;;;;;;;;;;;;;;;;;;6272466;22;19903;-86
2022/12/01 02:07:09;;;;;;;;;;;;;;;;;;6272965;22;19990;-86
2022/12/01 02:09:35;;;;;;;;;;;;;;;;;;6273042;22;19908;-87
2022/12/01 02:12:01;;;;;;;;;;;;;;;;;;6273530;22;19907;-88
2022/12/01 02:14:27;;;;;;;;;;;;;;;;;;6273297;22;19903;-89
2022/12/01 02:16:53;;;;;;;;;;;;;;;;;;6272237;22;19961;-86
2022/12/01 02:19:19;;;;;;;;;;;;;;;;;;6272094;22;20239;-85
2022/12/01 02:21:45;;;;;;;;;;;;;;;;;;6272333;22;19911;-86
2022/12/01 02:24:11;;;;;;;;;;;;;;;;;;6272357;22;20290;-89
2022/12/01 02:26:38;;;;;;;;;;;;;;;;;;6245090;22;19941;-88
2022/12/01 02:29:04;;;;;;;;;;;;;;;;;;6244684;22;20305;-84
2022/12/01 02:31:30;;;;;;;;;;;;;;;;;;6273096;22;19982;-87
2022/12/01 02:33:56;;;;;;;;;;;;;;;;;;6271926;22;19910;-88
2022/12/01 02:36:22;;;;;;;;;;;;;;;;;;6245160;22;19907;-87
2022/12/01 02:38:48;;;;;;;;;;;;;;;;;;6272170;22;19938;-87
2022/12/01 02:41:15;;;;;;;;;;;;;;;;;;6272122;22;19903;-88
2022/12/01 02:43:41;;;;;;;;;;;;;;;;;;6244994;22;20340;-89
2022/12/01 02:46:07;;;;;;;;;;;;;;;;;;6271974;22;19910;-88
2022/12/01 02:48:33;;;;;;;;;;;;;;;;;;6272741;22;19938;-88
2022/12/01 02:50:59;;;;;;;;;;;;;;;;;;6271980;22;19911;-88
2022/12/01 02:53:25;;;;;;;;;;;;;;;;;;6271878;22;19907;-88
2022/12/01 02:55:50;;;;;;;;;;;;;;;;;;6271938;22;19903;-88
2022/12/01 02:58:16;;;;;;;;;;;;;;;;;;6271787;22;19904;-87
2022/12/01 03:00:42;;;;;;;;;;;;;;;;;;6271739;22;20248;-87
2022/12/01 03:03:08;;;;;;;;;;;;;;;;;;6271782;22;19904;-88
2022/12/01 03:05:34;;;;;;;;;;;;;;;;;;6273086;22;19903;-88
2022/12/01 03:08:00;;;;;;;;;;;;;;;;;;6271961;22;19990;-87
2022/12/01 03:10:26;;;;;;;;;;;;;;;;;;6271674;22;20020;-88
2022/12/01 03:12:52;;;;;;;;;;;;;;;;;;6271841;22;20243;-89
2022/12/01 03:15:18;;;;;;;;;;;;;;;;;;6245779;22;19907;-88
2022/12/01 03:17:44;;;;;;;;;;;;;;;;;;6275163;22;20279;-88
2022/12/01 03:20:10;;;;;;;;;;;;;;;;;;6275260;22;19986;-88
2022/12/01 03:22:36;;;;;;;;;;;;;;;;;;6275897;22;19903;-80
2022/12/01 03:25:02;;;;;;;;;;;;;;;;;;6276163;22;20225;-89
2022/12/01 03:27:28;;;;;;;;;;;;;;;;;;6275359;22;19910;-88
2022/12/01 03:29:54;;;;;;;;;;;;;;;;;;6274944;22;19912;-87
2022/12/01 03:32:20;;;;;;;;;;;;;;;;;;6274993;22;20224;-86
2022/12/01 03:34:46;;;;;;;;;;;;;;;;;;6275204;22;20294;-83
2022/12/01 03:37:12;;;;;;;;;;;;;;;;;;6274941;22;19934;-87
2022/12/01 03:39:38;;;;;;;;;;;;;;;;;;6275027;22;19946;-81
2022/12/01 03:42:03;;;;;;;;;;;;;;;;;;6276061;22;19948;-87
2022/12/01 03:44:29;;;;;;;;;;;;;;;;;;6274936;22;19957;-83
2022/12/01 03:46:55;;;;;;;;;;;;;;;;;;6274862;22;20336;-86
2022/12/01 03:49:22;;;;;;;;;;;;;;;;;;6275045;22;19914;-86
2022/12/01 03:51:48;;;;;;;;;;;;;;;;;;6275105;22;19903;-85
2022/12/01 03:54:14;;;;;;;;;;;;;;;;;;6275067;22;19903;-85
2022/12/01 03:56:40;;;;;;;;;;;;;;;;;;6274989;22;20364;-86
2022/12/01 03:59:06;;;;;;;;;;;;;;;;;;6276057;22;19911;-84
2022/12/01 04:01:32;;;;;;;;;;;;;;;;;;6274869;22;20404;-85
2022/12/01 04:03:57;;;;;;;;;;;;;;;;;;6275021;22;20322;-86
2022/12/01 04:06:23;;;;;;;;;;;;;;;;;;6275059;22;19969;-83
2022/12/01 04:08:49;;;;;;;;;;;;;;;;;;6274922;22;19903;-86
2022/12/01 04:14:00;;;;;;;;;;;;;;;;;;6274797;22;19942;-86
2022/12/01 04:16:26;;;;;;;;;;;;;;;;;;6274993;22;19904;-86
2022/12/01 04:18:52;;;;;;;;;;;;;;;;;;6274887;22;19909;-87
2022/12/01 04:21:17;;;;;;;;;;;;;;;;;;6274963;22;19954;-87
2022/12/01 04:23:59;;;;;;;;;;;;;;;;;;6247600;22;19964;-87
2022/12/01 04:26:24;;;;;;;;;;;;;;;;;;6273948;22;19903;-88
2022/12/01 04:28:50;;;;;;;;;;;;;;;;;;6273247;22;19969;-89
2022/12/01 04:31:16;;;;;;;;;;;;;;;;;;6273307;22;19911;-90
2022/12/01 04:33:42;;;;;;;;;;;;;;;;;;6273332;22;19910;-87
2022/12/01 04:36:08;;;;;;;;;;;;;;;;;;6274284;22;19907;-89
2022/12/01 04:38:35;;;;;;;;;;;;;;;;;;6273110;22;20324;-87
2022/12/01 04:41:01;;;;;;;;;;;;;;;;;;6246510;22;19911;-90
2022/12/01 04:43:27;;;;;;;;;;;;;;;;;;6276551;22;19903;-91
2022/12/01 04:45:53;;;;;;;;;;;;;;;;;;6246665;22;19903;-81
2022/12/01 04:48:19;;;;;;;;;;;;;;;;;;6276804;22;19911;-83
2022/12/01 04:50:45;;;;;;;;;;;;;;;;;;6274042;22;20328;-89
2022/12/01 04:53:11;;;;;;;;;;;;;;;;;;6273734;22;19904;-81
2022/12/01 04:55:38;;;;;;;;;;;;;;;;;;6272354;22;20272;-88
2022/12/01 04:58:03;;;;;;;;;;;;;;;;;;6273571;22;19996;-90
2022/12/01 05:00:29;;;;;;;;;;;;;;;;;;6245245;22;20328;-90
2022/12/01 05:02:55;;;;;;;;;;;;;;;;;;6252578;22;20279;-88
2022/12/01 05:05:21;;;;;;;;;;;;;;;;;;6277595;22;19904;-88
2022/12/01 05:07:47;;;;;;;;;;;;;;;;;;6245621;22;20292;-88
2022/12/01 05:10:13;;;;;;;;;;;;;;;;;;6272411;22;19930;-81
2022/12/01 05:12:40;;;;;;;;;;;;;;;;;;6273627;22;19903;-89
2022/12/01 05:15:06;;;;;;;;;;;;;;;;;;6273154;22;19903;-86
2022/12/01 05:17:31;;;;;;;;;;;;;;;;;;6273533;22;19903;-87
2022/12/01 05:22:42;;;;;;;;;;;;;;;;;;6273756;22;19953;-88
2022/12/01 05:25:08;;;;;;;;;;;;;;;;;;6274048;22;20251;-87
2022/12/01 05:27:34;;;;;;;;;;;;;;;;;;6272587;22;19903;-88
2022/12/01 05:30:00;;;;;;;;;;;;;;;;;;6272799;22;19919;-92
2022/12/01 05:32:26;;;;;;;;;;;;;;;;;;6276565;22;19903;-89
2022/12/01 05:34:52;;;;;;;;;;;;;;;;;;6273106;22;19903;-93
2022/12/01 05:37:17;;;;;;;;;;;1.70;99.90;;;;;;6275412;22;19909;-94
2022/12/01 05:39:43;;;;;;;;;;;1.90;99.90;;;;;;6248124;22;19939;-92
2022/12/01 05:42:09;;;;;;;;;;;2.50;99.90;;;;;;6247748;22;19910;-94
2022/12/01 05:44:34;;;;;;;;;;;2.20;99.90;;;;;;6273763;22;19903;-95
2022/12/01 05:47:00;;;;;;;;;;;2.20;99.90;;;;;;6276173;22;19913;-93
2022/12/01 05:49:25;;;;;;;;;;;2.20;99.90;;;;;;6222348;22;19911;-90
2022/12/01 05:51:51;;;;;;;;;;;2.20;99.90;;;;;;6273469;22;20358;-90
2022/12/01 05:54:16;;;;;;;;;;;2.30;99.90;;;;;;6249411;22;19907;-88
2022/12/01 05:56:42;;;;;;;;;;;2.20;99.90;;;;;;6274405;22;19903;-87
2022/12/01 05:59:07;;;;;;;;;;;2.20;99.90;;;;;;6272590;22;20357;-93
2022/12/01 06:01:33;;;;;;;;;;;2.30;99.90;;;;;;6245465;22;20320;-89
2022/12/01 06:03:58;;;;;;;;;;;2.30;99.90;;;;;;6246070;22;19903;-93
2022/12/01 06:06:24;;;;;;;;;;;2.30;99.90;;;;;;6246147;22;19915;-94
2022/12/01 06:08:50;;;;;;;;;;;2.20;99.90;;;;;;6266470;22;19907;-90
2022/12/01 06:11:16;;;;;;;;;;;2.30;99.90;;;;;;6243437;22;19911;-93
2022/12/01 06:13:41;;;;;;;;;;;2.20;99.90;;;;;;6272150;22;19910;-93
2022/12/01 06:16:07;;;;;;;;;;;2.00;99.90;;;;;;6271313;22;19919;-91
2022/12/01 06:18:34;;;;;;;;;;;2.10;99.90;;;;;;6271754;22;19910;-93
2022/12/01 06:21:00;;;;;;;;;;;2.10;99.90;;;;;;6272088;22;19943;-91
2022/12/01 06:23:26;;;;;;;;;;;2.20;99.90;;;;;;6245080;22;20328;-96
2022/12/01 06:25:53;;;;;;;;;;;2.20;99.90;;;;;;6271902;22;19910;-94
2022/12/01 06:28:19;;;;;;;;;;;2.20;99.90;;;;;;6273258;22;20350;-92
2022/12/01 06:30:44;;;;;;;;;;;2.10;99.90;;;;;;6273768;22;19911;-91
2022/12/01 06:33:10;;;;;;;;;;;2.60;99.90;;;;;;6272705;22;19908;-91
2022/12/01 06:35:36;;;;;;;;;;;2.20;99.90;;;;;;6273022;22;20135;-92
2022/12/01 06:38:01;;;;;;;;;;;2.10;99.90;;;;;;6273102;22;19949;-89
2022/12/01 06:40:27;;;;;;;;;;;2.20;99.90;;;;;;6272995;22;19904;-93
2022/12/01 06:42:52;;;;;;;;;;;2.00;99.90;;;;;;6272713;22;20213;-91
2022/12/01 06:45:18;;;;;;;;;;;2.80;99.90;;;;;;6245241;22;19903;-93
2022/12/01 06:47:43;;;;;;;;;;;2.40;99.90;;;;;;6273048;22;19903;-93
2022/12/01 06:50:10;;;;;;;;;;;2.10;99.90;;;;;;6272210;22;19914;-93
2022/12/01 06:52:36;;;;;;;;;;;2.00;99.90;;;;;;6276434;22;19949;-92
2022/12/01 06:55:05;;;;;;;;;;;5.50;99.90;;;;;;6275632;22;19907;-94
2022/12/01 06:57:30;;;;;;;;;;;2.20;99.90;;;;;;6279130;22;19930;-91
2022/12/01 06:59:59;;;;;;;;;;;4.00;99.90;;;;;;6273151;22;20325;-92
2022/12/01 07:02:24;;;;;;;;;;;2.10;99.90;;;;;;6246148;22;20209;-90
2022/12/01 07:04:50;;;;;;;;;;;2.20;99.90;;;;;;6272691;22;19914;-92
2022/12/01 07:07:15;;;;;;;;;;;2.20;99.90;;;;;;6273188;22;19915;-91
2022/12/01 07:09:41;;;;;;;;;;;5.10;99.90;;;;;;6272078;22;19985;-91
2022/12/01 07:12:06;;;;;;;;;;;4.70;99.90;;;;;;6245004;22;19903;-91
2022/12/01 07:14:32;;;;;;;;;;;2.20;99.90;;;;;;6272027;22;20040;-91
2022/12/01 07:16:58;;;;;;;;;;;2.10;99.90;;;;;;6245104;22;20217;-91
2022/12/01 07:19:23;;;;;;;;;;;4.70;99.90;;;;;;6271829;22;19903;-90
2022/12/01 07:21:49;;;;;;;;;;;1.50;99.90;;;;;;6272198;22;19986;-88
2022/12/01 07:24:15;;;;;;;;;;;4.50;99.90;;;;;;6246114;22;20324;-93
2022/12/01 07:26:40;;;;;;;;;;;2.00;99.90;;;;;;6271656;22;19908;-91
2022/12/01 07:29:06;;;;;;;;;;;4.20;99.90;;;;;;6271843;22;19911;-91
2022/12/01 07:31:31;;;;;;;;;;;4.70;99.90;;;;;;6271395;22;19907;-92
2022/12/01 07:33:57;;;;;;;;;;;2.00;99.90;;;;;;6244763;22;19986;-90
2022/12/01 07:36:22;;;;;;;;;;;1.50;99.90;;;;;;6272190;22;19957;-92
2022/12/01 07:38:48;;;;;;;;;;;4.20;99.90;;;;;;6272798;22;19945;-92
2022/12/01 07:41:15;;;;;;;;;;;1.90;99.90;;;;;;6271899;22;19938;-90
2022/12/01 07:43:40;;;;;;;;;;;4.60;99.90;;;;;;6271881;22;19911;-90
2022/12/01 07:46:32;;;;;;;;;;;1.80;99.90;;;;;;6271962;22;19903;-92
2022/12/01 07:48:58;;;;;;;;;;;2.10;99.90;;;;;;6263303;22;19903;-90
2022/12/01 07:51:24;;;;;;;;;;;1.50;99.90;;;;;;6244751;22;19998;-90
2022/12/01 07:53:50;;;;;;;;;;;2.00;99.90;;;;;;6273131;22;19978;-86
2022/12/01 07:56:16;;;;;;;;;;;2.30;99.90;;;;;;6273035;22;19910;-92
2022/12/01 07:58:42;;;;;;;;;;;4.20;99.90;;;;;;6271515;22;19934;-91
2022/12/01 08:01:11;;;;;;;;;;;1.70;99.90;;;;;;6271877;22;19956;-90
2022/12/01 08:03:37;;;;;;;;;;;2.80;99.90;;;;;;6273719;22;19910;-90
2022/12/01 08:06:02;;;;;;;;;;;2.00;99.90;;;;;;6273727;22;19903;-91
2022/12/01 08:08:29;;;;;;;;;;;1.90;99.90;;;;;;6273963;22;20335;-90
2022/12/01 08:10:58;;;;;;;;;;;2.30;99.90;;;;;;6246592;22;19965;-90
2022/12/01 08:13:23;;;;;;;;;;;4.50;99.90;;;;;;6246422;22;19904;-89
2022/12/01 08:15:49;;;;;;;;;;;5.30;99.90;;;;;;6274918;22;19949;-89
2022/12/01 08:18:14;;;;;;;;;;;1.90;99.90;;;;;;6273767;22;20220;-92
2022/12/01 08:20:40;;;;;;;;;;;2.10;99.90;;;;;;6246699;22;19909;-92
2022/12/01 08:23:07;;;;;;;;;;;1.80;99.90;;;;;;6246447;22;19903;-92
2022/12/01 08:25:32;;;;;;;;;;;2.20;99.90;;;;;;6246498;22;19903;-91
2022/12/01 08:27:59;;;;;;;;;;;2.20;99.90;;;;;;6273569;22;19942;-90
2022/12/01 08:30:24;;;;;;;;;;;3.50;99.90;;;;;;6246587;22;19911;-91
2022/12/01 08:32:53;;;;;;;;;;;2.20;99.90;;;;;;6247620;22;20255;-89
2022/12/01 08:35:19;;;;;;;;;;;2.30;99.90;;;;;;6274619;22;20286;-92
2022/12/01 08:37:44;;;;;;;;;;;2.50;99.90;;;;;;6273420;22;19904;-91
2022/12/01 08:40:10;;;;;;;;;;;1.60;99.90;;;;;;6246311;22;19907;-91
2022/12/01 08:42:36;;;;;;;;;;;2.40;99.90;;;;;;6273591;22;19903;-90
2022/12/01 08:45:01;;;;;;;;;;;4.70;99.90;;;;;;6246747;22;19907;-91
2022/12/01 08:47:27;;;;;;;;;;;2.30;99.90;;;;;;6273424;22;20240;-91
2022/12/01 08:49:53;;;;;;;;;;;2.40;99.90;;;;;;6274106;22;19918;-89
2022/12/01 08:52:19;;;;;;;;;;;2.20;99.90;;;;;;6274410;22;19904;-91
2022/12/01 08:54:44;;;;;;;;;;;3.10;99.90;;;;;;6246187;22;19930;-92
2022/12/01 08:57:10;;;;;;;;;;;2.50;99.90;;;;;;6273233;22;19931;-91
2022/12/01 08:59:36;;;;;;;;;;;2.50;99.90;;;;;;6273405;22;19903;-92
2022/12/01 09:02:01;;;;;;;;;;;2.60;99.90;;;;;;6273388;22;19907;-91
2022/12/01 09:04:27;;;;;;;;;;;3.30;99.90;;;;;;6246160;22;19971;-93
2022/12/01 09:06:54;;;;;;;;;;;2.70;99.90;;;;;;6274207;22;19911;-93
2022/12/01 09:09:24;;;;;;;;;;;2.70;99.90;;;;;;6274040;22;19911;-89
2022/12/01 09:11:51;;;;;;;;;;;2.80;99.90;;;;;;6273914;22;19915;-90
2022/12/01 09:14:17;;;;;;;;;;;2.30;99.90;;;;;;6272906;22;20343;-92
2022/12/01 09:16:44;;;;;;;;;;;2.90;99.90;;;;;;6246076;22;19957;-91
2022/12/01 09:19:09;;;;;;;;;;;3.00;99.90;;;;;;6272986;22;19910;-91
2022/12/01 09:21:38;;;;;;;;;;;3.10;99.90;;;;;;6272869;22;19904;-91
2022/12/01 09:24:05;;;;;;;;;;;3.30;99.90;;;;;;6245825;22;20362;-91
2022/12/01 09:26:30;;;;;;;;;;;3.20;99.90;;;;;;6272683;22;19907;-90
2022/12/01 09:28:57;;;;;;;;;;;3.30;99.90;;;;;;6246211;22;20248;-91
2022/12/01 09:31:23;;;;;;;;;;;6.60;99.90;;;;;;6274041;22;19965;-90
2022/12/01 09:33:59;;;;;;;;;;;6.30;99.90;;;;;;6273007;22;19903;-89
2022/12/01 09:36:25;;;;;;;;;;;3.50;99.90;;;;;;6273874;22;19904;-88
2022/12/01 09:38:51;;;;;;;;;;;3.40;99.90;;;;;;6273775;22;19907;-89
2022/12/01 09:41:19;;;;;;;;;;;3.50;99.90;;;;;;6273249;22;19986;-89
2022/12/01 09:43:49;;;;;;;;;;;3.70;99.90;;;;;;6273214;22;19903;-89
2022/12/01 09:46:19;;;;;;;;;;;3.80;99.90;;;;;;6273273;22;19904;-91
2022/12/01 09:48:45;;;;;;;;;;;5.90;99.90;;;;;;6272867;22;19903;-92
2022/12/01 09:51:11;;;;;;;;;;;3.90;99.90;;;;;;6245573;22;19950;-91
2022/12/01 09:53:37;;;;;;;;;;;3.90;99.90;;;;;;6245654;22;19904;-92
2022/12/01 09:56:03;;;;;;;;;;;6.10;99.90;;;;;;6273061;22;20330;-92
2022/12/01 09:58:29;;;;;;;;;;;4.00;99.90;;;;;;6272976;22;19903;-92
2022/12/01 10:00:56;;;;;;;;;;;4.10;99.90;;;;;;6274003;22;19903;-91
2022/12/01 10:03:33;;;;;;;;;;;4.00;99.90;;;;;;6273849;22;19907;-92
2022/12/01 10:06:07;;;;;;;;;;;3.90;99.90;;;;;;6245521;22;20235;-90
2022/12/01 10:08:34;;;;;;;;;;;3.70;99.90;;;;;;6272838;22;19960;-93
2022/12/01 10:11:07;;;;;;;;;;;3.80;99.90;;;;;;6272649;22;20320;-93
2022/12/01 10:13:32;;;;;;;;;;;3.60;99.90;;;;;;6245927;22;19983;-91
2022/12/01 10:16:10;;;;;;;;;;;3.40;99.90;;;;;;6272582;22;20285;-92
2022/12/01 10:18:36;;;;;;;;;;;3.30;99.90;;;;;;6272455;22;19931;-91
2022/12/01 10:21:13;;;;;;;;;;;5.30;99.90;;;;;;6272518;22;20283;-92
2022/12/01 10:24:00;;;;;;;;;;;3.20;99.90;;;;;;6272576;22;19907;-89
2022/12/01 10:26:37;;;;;;;;;;;3.20;99.90;;;;;;6273143;22;19903;-91
2022/12/01 10:29:15;;;;;;;;;;;3.20;99.90;;;;;;6272275;22;19934;-91
2022/12/01 10:32:06;;;;;;;;;;;3.30;99.90;;;;;;6272524;22;19915;-91
2022/12/01 10:34:34;;;;;;;;;;;3.30;99.90;;;;;;6264722;22;19910;-91
2022/12/01 10:37:00;;;;;;;;;;;3.50;99.90;;;;;;6245206;22;20317;-91
2022/12/01 10:39:28;;;;;;;;;;;3.40;99.90;;;;;;6273021;22;20001;-92
2022/12/01 10:41:56;;;;;;;;;;;3.40;99.90;;;;;;6246437;22;19903;-91
2022/12/01 10:44:22;;;;;;;;;;;3.50;99.90;;;;;;6272282;22;19904;-90
2022/12/01 10:46:54;;;;;;;;;;;5.60;99.90;;;;;;6245175;22;19903;-91
2022/12/01 10:49:33;;;;;;;;;;;3.60;99.90;;;;;;6272154;22;19910;-91
2022/12/01 10:51:59;;;;;;;;;;;3.80;99.90;;;;;;6273101;22;20240;-90
2022/12/01 10:54:31;;;;;;;;;;;6.00;99.90;;;;;;6273175;22;20342;-91
2022/12/01 10:56:57;;;;;;;;;;;4.00;99.90;;;;;;6273791;22;19904;-90
2022/12/01 10:59:28;;;;;;;;;;;6.00;99.90;;;;;;6272041;22;19903;-91
2022/12/01 11:01:55;;;;;;;;;;;4.00;99.90;;;;;;6272819;22;19911;-91
2022/12/01 11:04:24;;;;;;;;;;;4.90;99.90;;;;;;6244860;22;19933;-89
2022/12/01 11:06:50;;;;;;;;;;;4.10;99.90;;;;;;6244910;22;20371;-90
2022/12/01 11:09:20;;;;;;;;;;;4.30;99.90;;;;;;6272239;22;19994;-90
2022/12/01 11:11:52;;;;;;;;;;;4.40;99.90;;;;;;6272024;22;19907;-92
2022/12/01 11:14:20;;;;;;;;;;;7.20;99.90;;;;;;6271973;22;19932;-92
2022/12/01 11:16:46;;;;;;;;;;;4.40;99.90;;;;;;6271893;22;19905;-90
2022/12/01 11:19:27;;;;;;;;;;;4.40;99.90;;;;;;6245119;22;19904;-92
2022/12/01 11:21:57;;;;;;;;;;;4.40;99.90;;;;;;6244936;22;19903;-91
2022/12/01 11:24:28;;;;;;;;;;;5.20;99.90;;;;;;6271975;22;19907;-90
2022/12/01 11:26:55;;;;;;;;;;;4.50;99.90;;;;;;6271760;22;19982;-90
2022/12/01 11:29:31;;;;;;;;;;;6.80;99.90;;;;;;6244842;22;19964;-91
2022/12/01 11:31:58;;;;;;;;;;;4.60;99.90;;;;;;6245863;22;19930;-92
2022/12/01 11:34:33;;;;;;;;;;;3.90;99.90;;;;;;6272103;22;19910;-90
2022/12/01 11:37:03;;;;;;;;;;;4.60;99.90;;;;;;6274101;22;19974;-91
2022/12/01 11:39:31;;;;;;;;;;;4.70;99.90;;;;;;6248046;22;19910;-92
2022/12/01 11:42:04;;;;;;;;;;;4.70;99.90;;;;;;6278534;22;19903;-90
2022/12/01 11:44:32;;;;;;;;;;;4.80;99.90;;;;;;6278127;22;19914;-91
2022/12/01 11:47:10;;;;;;;;;;;4.80;99.90;;;;;;6275298;22;19909;-91
2022/12/01 11:49:39;;;;;;;;;;;4.90;99.90;;;;;;6273940;22;19907;-91
2022/12/01 11:52:15;;;;;;;;;;;4.90;99.90;;;;;;6273980;22;20255;-92
2022/12/01 11:54:53;;;;;;;;;;;4.90;99.90;;;;;;6274275;22;19907;-92
2022/12/01 11:57:18;;;;;;;;;;;5.00;99.90;;;;;;6246632;22;19903;-91
2022/12/01 11:59:44;;;;;;;;;;;4.90;99.90;;;;;;6273905;22;19903;-90
2022/12/01 12:02:18;;;;;;;;;;;5.00;99.90;;;;;;6246737;22;19903;-91
2022/12/01 12:04:54;;;;;;;;;;;5.10;99.90;;;;;;6246418;22;19926;-91
2022/12/01 12:07:26;;;;;;;;;;;5.10;99.90;;;;;;6246561;22;19934;-92
2022/12/01 12:10:10;;;;;;;;;;;5.20;99.90;;;;;;6273649;22;20286;-88
2022/12/01 12:13:12;;;;;;;;;;;5.20;99.90;;;;;;6273612;22;19907;-90
2022/12/01 12:15:46;;;;;;;;;;;5.20;99.90;;;;;;6120823;23;19929;-90
2022/12/01 12:18:38;;;;;;;;;;;5.30;99.90;;;;;;6249874;22;20268;-91
2022/12/01 12:21:04;;;;;;;;;;;5.50;99.90;;;;;;6216555;22;19956;-89
2022/12/01 12:23:53;;;;;;;;;;;5.10;99.90;;;;;;6247165;22;19907;-92
2022/12/01 12:26:24;;;;;;;;;;;5.60;99.90;;;;;;6253095;22;19903;-90
2022/12/01 12:28:50;;;;;;;;;;;5.70;99.90;;;;;;6246390;22;19904;-89
2022/12/01 12:31:15;;;;;;;;;;;6.10;99.90;;;;;;6273246;22;19911;-91
2022/12/01 12:33:44;;;;;;;;;;;5.70;99.90;;;;;;6273278;22;20229;-90
2022/12/01 12:36:12;;;;;;;;;;;5.70;99.90;;;;;;6273514;22;19948;-92
2022/12/01 12:38:38;;;;;;;;;;;5.70;99.90;;;;;;6273633;22;19904;-91
2022/12/01 12:41:09;;;;;;;;;;;5.80;99.90;;;;;;6274518;22;19910;-91
2022/12/01 12:43:35;;;;;;;;;;;5.80;99.90;;;;;;6274398;22;20243;-87
2022/12/01 12:46:04;;;;;;;;;;;5.80;99.90;;;;;;6247516;22;19942;-91
2022/12/01 12:48:32;;;;;;;;;;;5.80;99.90;;;;;;6272939;22;19989;-91
2022/12/01 12:51:20;;;;;;;;;;;5.90;99.90;;;;;;6246413;22;19915;-93
2022/12/01 12:53:51;;;;;;;;;;;5.90;99.90;;;;;;6273406;22;19903;-91
2022/12/01 12:56:18;;;;;;;;;;;6.00;99.90;;;;;;6273587;22;19910;-91
2022/12/01 12:58:47;;;;;;;;;;;6.30;99.90;;;;;;6273362;22;19904;-92
2022/12/01 13:01:15;;;;;;;;;;;6.00;99.90;;;;;;6273626;22;19903;-92
2022/12/01 13:03:50;;;;;;;;;;;5.90;99.90;;;;;;6273388;22;19910;-90
2022/12/01 13:06:18;;;;;;;;;;;5.90;99.90;;;;;;6246340;22;20269;-92
2022/12/01 13:09:00;;;;;;;;;;;6.00;99.90;;;;;;6273301;22;19903;-92
2022/12/01 13:11:28;;;;;;;;;;;6.00;99.90;;;;;;6273118;22;19911;-92
2022/12/01 13:14:23;;;;;;;;;;;6.00;99.90;;;;;;6246212;22;20350;-92
2022/12/01 13:16:50;;;;;;;;;;;6.10;99.90;;;;;;6240715;22;19907;-91
2022/12/01 13:19:16;;;;;;;;;;;6.20;99.90;;;;;;6273018;22;19904;-91
2022/12/01 13:21:42;;;;;;;;;;;6.10;99.90;;;;;;6272978;22;19903;-91
2022/12/01 13:24:12;;;;;;;;;;;6.20;99.90;;;;;;6273536;22;19931;-88
2022/12/01 13:26:39;;;;;;;;;;;6.20;99.90;;;;;;6273562;22;19909;-88
2022/12/01 13:29:05;;;;;;;;;;;6.20;99.90;;;;;;6274302;22;19910;-92
2022/12/01 13:31:41;;;;;;;;;;;8.00;99.90;;;;;;6272940;22;19922;-91
2022/12/01 13:34:06;;;;;;;;;;;6.40;99.90;;;;;;6274240;22;19957;-92
2022/12/01 13:36:32;;;;;;;;;;;6.30;99.90;;;;;;6272972;22;19903;-93
2022/12/01 13:39:02;;;;;;;;;;;6.30;99.90;;;;;;6273323;22;20191;-92
2022/12/01 13:41:30;;;;;;;;;;;6.40;99.90;;;;;;6273280;22;20446;-92
2022/12/01 13:44:07;;;;;;;;;;;7.00;99.90;;;;;;6272927;22;19904;-92
2022/12/01 13:46:32;;;;;;;;;;;6.40;99.90;;;;;;6272997;22;19907;-92
2022/12/01 13:48:59;;;;;;;;;;;6.40;99.90;;;;;;6272761;22;20209;-91
2022/12/01 13:51:25;;;;;;;;;;;6.50;99.90;;;;;;6272972;22;19964;-92
2022/12/01 13:53:54;;;;;;;;;;;6.60;99.90;;;;;;6272946;22;20343;-92
2022/12/01 13:56:20;;;;;;;;;;;6.80;99.90;;;;;;6272968;22;20020;-91
2022/12/01 13:58:47;;;;;;;;;;;6.60;99.90;;;;;;6272909;22;19904;-92
2022/12/01 14:01:19;;;;;;;;;;;6.60;99.90;;;;;;6245747;22;19910;-92
2022/12/01 14:03:53;;;;;;;;;;;6.70;99.90;;;;;;6272934;22;19903;-92
2022/12/01 14:06:45;;;;;;;;;;;6.70;99.90;;;;;;6272535;22;19907;-92
2022/12/01 14:09:22;;;;;;;;;;;6.70;99.90;;;;;;6244244;22;19910;-89
2022/12/01 14:11:59;;;;;;;;;;;6.80;99.90;;;;;;6271317;22;19911;-92
2022/12/01 14:14:27;;;;;;;;;;;6.80;99.90;;;;;;6271499;22;20323;-91
2022/12/01 14:16:54;;;;;;;;;;;6.80;99.90;;;;;;6271358;22;19986;-91
2022/12/01 14:19:29;;;;;;;;;;;6.80;99.90;;;;;;6271318;22;19904;-92
2022/12/01 14:21:56;;;;;;;;;;;6.80;99.90;;;;;;6271189;22;20243;-92
2022/12/01 14:24:23;;;;;;;;;;;6.80;99.90;;;;;;6271382;22;19961;-92
2022/12/01 14:26:49;;;;;;;;;;;6.80;99.90;;;;;;6244523;22;20354;-92
2022/12/01 14:29:25;;;;;;;;;;;6.90;99.90;;;;;;6271159;22;19969;-93
2022/12/01 14:31:51;;;;;;;;;;;6.80;99.90;;;;;;6271398;22;19962;-92
2022/12/01 14:34:18;;;;;;;;;;;6.90;99.90;;;;;;6271297;22;20236;-88
2022/12/01 14:36:47;;;;;;;;;;;6.90;99.90;;;;;;6270796;22;19987;-88
2022/12/01 14:39:21;;;;;;;;;;;6.90;99.90;;;;;;6271328;22;19904;-92
2022/12/01 14:41:52;;;;;;;;;;;6.90;99.90;;;;;;6271278;22;19904;-91
2022/12/01 14:44:21;;;;;;;;;;;6.90;99.90;;;;;;6244181;22;19907;-91
2022/12/01 14:46:56;;;;;;;;;;;6.90;99.90;;;;;;6271352;22;19908;-90
2022/12/01 14:49:24;;;;;;;;;;;6.90;99.90;;;;;;6243744;22;19907;-93
2022/12/01 14:51:57;;;;;;;;;;;7.00;99.90;;;;;;6244215;22;19952;-92
2022/12/01 14:54:25;;;;;;;;;;;7.00;99.90;;;;;;6244102;22;19949;-93
2022/12/01 14:56:52;;;;;;;;;;;7.00;99.90;;;;;;6244022;22;19907;-91
2022/12/01 14:59:20;;;;;;;;;;;6.90;99.90;;;;;;6270889;22;20294;-91
2022/12/01 15:01:47;;;;;;;;;;;6.90;99.90;;;;;;6270937;22;19903;-91
2022/12/01 15:04:14;;;;;;;;;;;6.90;99.90;;;;;;6271152;22;19979;-91
2022/12/01 15:06:39;;;;;;;;;;;6.90;99.90;;;;;;6175965;22;2202685;-92
2022/12/01 15:09:14;;;;;;;;;;;6.90;99.90;;;;;;6272248;22;19903;-91
2022/12/01 15:11:53;;;;;;;;;;;6.80;99.90;;;;;;6272821;22;19912;-92
2022/12/01 15:14:23;;;;;;;;;;;6.90;99.90;;;;;;6245067;22;19934;-91
2022/12/01 15:16:50;;;;;;;;;;;6.80;99.90;;;;;;6244942;22;19904;-91
2022/12/01 15:19:27;;;;;;;;;;;6.80;99.90;;;;;;6245079;22;20220;-92
2022/12/01 15:21:53;;;;;;;;;;;6.80;99.90;;;;;;6245056;22;19943;-91
2022/12/01 15:24:20;;;;;;;;;;;6.80;99.90;;;;;;6272161;22;19912;-92
2022/12/01 15:26:47;;;;;;;;;;;6.80;99.90;;;;;;6272043;22;19942;-91